X  Close Metar Aviation Weather Data     EGGD Bristol Airport
Temperature
28°C Temperature
10°C Dewpoint
32% Humidity



Wind
12 MPH
19 KM/H
5 M/S
10 KTS



50°
NE
Current Conditions

Clear Clear
Pressure 1021.92 (hPa) - 30.18 (inHg)
Visibility 6.2 (mile) - 10 (km)
Airport
Airport-code EGGD

Location: Bristol Airport
Distance: 11 (mi)

Metar:
EGGD 111120Z AUTO 05010KT 020V080 9999 NCD 28/10 Q1022

Time: 11-08-2022 12:20 BST